GMTN

Saniat Rmel Airport

Morocco
METAR GMTN 202300Z 08007KT 6000 BKN013 23/20 Q1016 NOSIG
Observed Flight Rules
Aug-20 @ 23:00 UTC (an hour ago) Marginal Visual Flight Rules
Wind Visibility Clouds
80° at 7 knots 6,003 meters
  • Broken at 1,300' AGL
Temperatures Readings
Current 23°C / 73°F
Dewpoint 20°C / 68°F
Humidity 83%
Altimeter 30" Hg
Pressure 1016 hPa
Elevation 10
METAR GMTN 202300Z 08007KT 6000 BKN013 23/20 Q1016 NOSIG
Observed Flight Rules
Aug-20 @ 23:00 UTC
(an hour ago)
MVFR
Wind Visibility
80° at 7 knots 6,003 meters
Clouds
  • Broken at 1,300' AGL
Temperature Dewpoint
23°C / 73°F 20°C / 68°F
Humidity Altimeter Pressure
83% 30" Hg 1016 hPa